JAL453 RJTT-RJOS
Flight info
| Callsign | JAL453 |
|---|---|
| Flight time | 0h 52m |
| Altitude | 36000 |
| Route | LAXAS Y56 TOHME Y54 KOHWA Y544 SINGU Y542 DATIS |
| Aircraft | B763/H-SDE3FGHIM3RWXY/LB1 |
Departure
| Time | 2026-04-16 13:46 |
|---|---|
| Airport | Tokyo Haneda International Airport (RJTT) |
Arrival
| Time | 2026-04-16 14:39 |
|---|---|
| Airport | Tokushima Awaodori Airport / JMSDF Tokushima Air Base (RJOS) |
| Time | Latitude | Longitude | Altitude | Speed | Heading |
|---|---|---|---|---|---|
| 2026-04-16 12:37 | 35.54660 | 139.78447 | 31 ft | 0 kts | 60° |
| 2026-04-16 13:28 | 35.54649 | 139.78424 | 31 ft | 3 kts | 60° |
| 2026-04-16 13:29 | 35.54636 | 139.78397 | 31 ft | 3 kts | 60° |
| 2026-04-16 13:29 | 35.54623 | 139.78369 | 31 ft | 3 kts | 59° |
| 2026-04-16 13:29 | 35.54610 | 139.78342 | 31 ft | 3 kts | 59° |
| 2026-04-16 13:29 | 35.54596 | 139.78320 | 31 ft | 3 kts | 37° |
| 2026-04-16 13:30 | 35.54575 | 139.78308 | 31 ft | 3 kts | 9° |
| 2026-04-16 13:30 | 35.54558 | 139.78311 | 31 ft | 3 kts | 330° |
| 2026-04-16 13:30 | 35.54551 | 139.78316 | 31 ft | 3 kts | 331° |
| 2026-04-16 13:30 | 35.54522 | 139.78336 | 31 ft | 0 kts | 332° |
| 2026-04-16 13:31 | 35.54522 | 139.78334 | 31 ft | 0 kts | 332° |
| 2026-04-16 13:34 | 35.54548 | 139.78317 | 31 ft | 12 kts | 332° |
| 2026-04-16 13:34 | 35.54589 | 139.78224 | 31 ft | 14 kts | 241° |
| 2026-04-16 13:35 | 35.54501 | 139.78226 | 31 ft | 18 kts | 151° |
| 2026-04-16 13:35 | 35.54363 | 139.78323 | 31 ft | 24 kts | 149° |
| 2026-04-16 13:35 | 35.54212 | 139.78430 | 31 ft | 25 kts | 149° |
| 2026-04-16 13:35 | 35.54056 | 139.78546 | 31 ft | 26 kts | 153° |
| 2026-04-16 13:36 | 35.53896 | 139.78654 | 31 ft | 25 kts | 150° |
| 2026-04-16 13:36 | 35.53742 | 139.78770 | 31 ft | 26 kts | 142° |
| 2026-04-16 13:36 | 35.53601 | 139.78919 | 31 ft | 27 kts | 139° |
| 2026-04-16 13:36 | 35.53452 | 139.79071 | 31 ft | 27 kts | 139° |
| 2026-04-16 13:37 | 35.53373 | 139.79242 | 31 ft | 22 kts | 79° |
| 2026-04-16 13:37 | 35.53447 | 139.79413 | 31 ft | 23 kts | 59° |
| 2026-04-16 13:37 | 35.53525 | 139.79578 | 31 ft | 21 kts | 60° |
| 2026-04-16 13:37 | 35.53613 | 139.79761 | 31 ft | 25 kts | 59° |
| 2026-04-16 13:38 | 35.53696 | 139.79938 | 31 ft | 18 kts | 60° |
| 2026-04-16 13:38 | 35.53677 | 139.80043 | 31 ft | 12 kts | 141° |
| 2026-04-16 13:38 | 35.53607 | 139.80096 | 31 ft | 11 kts | 149° |
| 2026-04-16 13:38 | 35.53539 | 139.80147 | 31 ft | 11 kts | 150° |
| 2026-04-16 13:39 | 35.53466 | 139.80196 | 31 ft | 12 kts | 150° |
| 2026-04-16 13:39 | 35.53391 | 139.80249 | 31 ft | 12 kts | 149° |
| 2026-04-16 13:39 | 35.53313 | 139.80302 | 31 ft | 13 kts | 151° |
| 2026-04-16 13:39 | 35.53233 | 139.80357 | 31 ft | 13 kts | 150° |
| 2026-04-16 13:40 | 35.53151 | 139.80417 | 31 ft | 13 kts | 149° |
| 2026-04-16 13:40 | 35.53066 | 139.80473 | 31 ft | 13 kts | 151° |
| 2026-04-16 13:40 | 35.52980 | 139.80518 | 31 ft | 12 kts | 186° |
| 2026-04-16 13:40 | 35.52900 | 139.80458 | 31 ft | 14 kts | 223° |
| 2026-04-16 13:41 | 35.52821 | 139.80370 | 31 ft | 16 kts | 222° |
| 2026-04-16 13:41 | 35.52732 | 139.80270 | 31 ft | 18 kts | 222° |
| 2026-04-16 13:41 | 35.52647 | 139.80174 | 31 ft | 8 kts | 223° |
| 2026-04-16 13:41 | 35.52638 | 139.80162 | 31 ft | 0 kts | 223° |
| 2026-04-16 13:42 | 35.52629 | 139.80154 | 31 ft | 7 kts | 221° |
| 2026-04-16 13:43 | 35.52551 | 139.80158 | 31 ft | 13 kts | 136° |
| 2026-04-16 13:43 | 35.52486 | 139.80241 | 31 ft | 13 kts | 131° |
| 2026-04-16 13:43 | 35.52467 | 139.80267 | 31 ft | 1 kts | 131° |
| 2026-04-16 13:43 | 35.52466 | 139.80269 | 31 ft | 0 kts | 131° |
| 2026-04-16 13:44 | 35.52465 | 139.80270 | 31 ft | 0 kts | 131° |
| 2026-04-16 13:44 | 35.52463 | 139.80272 | 31 ft | 0 kts | 131° |
| 2026-04-16 13:44 | 35.52458 | 139.80280 | 31 ft | 6 kts | 131° |
| 2026-04-16 13:44 | 35.52422 | 139.80344 | 31 ft | 8 kts | 96° |
| 2026-04-16 13:45 | 35.52441 | 139.80394 | 31 ft | 0 kts | 43° |
| 2026-04-16 13:45 | 35.52531 | 139.80496 | 31 ft | 47 kts | 43° |
| 2026-04-16 13:45 | 35.52978 | 139.80998 | 32 ft | 124 kts | 43° |
| 2026-04-16 13:46 | 35.53733 | 139.81871 | 436 ft | 164 kts | 47° |
| 2026-04-16 13:46 | 35.54143 | 139.83099 | 1589 ft | 165 kts | 82° |
| 2026-04-16 13:46 | 35.53883 | 139.84561 | 1949 ft | 195 kts | 105° |
| 2026-04-16 13:46 | 35.53222 | 139.86099 | 2388 ft | 216 kts | 112° |
| 2026-04-16 13:47 | 35.52455 | 139.87793 | 2844 ft | 236 kts | 111° |
| 2026-04-16 13:47 | 35.51648 | 139.89642 | 3428 ft | 253 kts | 111° |
| 2026-04-16 13:47 | 35.50822 | 139.91548 | 4332 ft | 259 kts | 111° |
| 2026-04-16 13:47 | 35.49813 | 139.93440 | 5135 ft | 277 kts | 130° |
| 2026-04-16 13:48 | 35.48163 | 139.94688 | 6061 ft | 293 kts | 159° |
| 2026-04-16 13:48 | 35.46109 | 139.94919 | 6981 ft | 306 kts | 187° |
| 2026-04-16 13:48 | 35.44117 | 139.94052 | 7846 ft | 314 kts | 210° |
| 2026-04-16 13:48 | 35.42216 | 139.92624 | 8677 ft | 323 kts | 213° |
| 2026-04-16 13:49 | 35.40569 | 139.90794 | 9587 ft | 325 kts | 238° |
| 2026-04-16 13:49 | 35.39535 | 139.88388 | 10440 ft | 327 kts | 249° |
| 2026-04-16 13:49 | 35.38402 | 139.85805 | 10702 ft | 361 kts | 242° |
| 2026-04-16 13:49 | 35.37000 | 139.83113 | 11128 ft | 385 kts | 240° |
| 2026-04-16 13:50 | 35.35512 | 139.80394 | 12239 ft | 388 kts | 239° |
| 2026-04-16 13:50 | 35.33977 | 139.77652 | 13082 ft | 396 kts | 239° |
| 2026-04-16 13:50 | 35.32403 | 139.74884 | 14043 ft | 400 kts | 239° |
| 2026-04-16 13:50 | 35.30840 | 139.72078 | 15050 ft | 398 kts | 244° |
| 2026-04-16 13:51 | 35.29753 | 139.69066 | 16049 ft | 386 kts | 261° |
| 2026-04-16 13:51 | 35.29375 | 139.65884 | 17053 ft | 372 kts | 276° |
| 2026-04-16 13:51 | 35.29252 | 139.62738 | 17884 ft | 379 kts | 271° |
| 2026-04-16 13:51 | 35.28870 | 139.59575 | 18853 ft | 380 kts | 268° |
| 2026-04-16 13:52 | 35.28399 | 139.56378 | 19703 ft | 385 kts | 266° |
| 2026-04-16 13:52 | 35.27866 | 139.53180 | 20610 ft | 385 kts | 265° |
| 2026-04-16 13:52 | 35.27300 | 139.49982 | 21388 ft | 389 kts | 264° |
| 2026-04-16 13:52 | 35.26715 | 139.46788 | 22249 ft | 388 kts | 264° |
| 2026-04-16 13:53 | 35.26123 | 139.43605 | 23008 ft | 389 kts | 264° |
| 2026-04-16 13:53 | 35.25519 | 139.40389 | 23694 ft | 392 kts | 264° |
| 2026-04-16 13:53 | 35.24900 | 139.37123 | 24488 ft | 391 kts | 264° |
| 2026-04-16 13:53 | 35.24497 | 139.34996 | 25004 ft | 391 kts | 264° |
| 2026-04-16 13:54 | 35.23649 | 139.30533 | 25861 ft | 395 kts | 263° |
| 2026-04-16 13:54 | 35.23029 | 139.27278 | 26422 ft | 398 kts | 263° |
| 2026-04-16 13:54 | 35.22401 | 139.23997 | 27090 ft | 399 kts | 263° |
| 2026-04-16 13:54 | 35.21770 | 139.20695 | 27630 ft | 401 kts | 263° |
| 2026-04-16 13:55 | 35.21132 | 139.17369 | 28191 ft | 404 kts | 264° |
| 2026-04-16 13:55 | 35.20490 | 139.14027 | 28861 ft | 402 kts | 263° |
| 2026-04-16 13:55 | 35.19848 | 139.10684 | 29226 ft | 408 kts | 263° |
| 2026-04-16 13:55 | 35.19204 | 139.07341 | 29746 ft | 409 kts | 263° |
| 2026-04-16 13:56 | 35.18549 | 139.03941 | 30102 ft | 413 kts | 263° |
| 2026-04-16 13:56 | 35.17886 | 139.00525 | 30601 ft | 413 kts | 264° |
| 2026-04-16 13:56 | 35.17229 | 138.97125 | 31096 ft | 412 kts | 264° |
| 2026-04-16 13:56 | 35.16569 | 138.93726 | 31365 ft | 416 kts | 264° |
| 2026-04-16 13:57 | 35.15904 | 138.90295 | 31693 ft | 419 kts | 264° |
| 2026-04-16 13:57 | 35.15228 | 138.86829 | 32136 ft | 418 kts | 264° |
| 2026-04-16 13:57 | 35.14558 | 138.83401 | 32770 ft | 413 kts | 264° |
| 2026-04-16 13:58 | 35.13240 | 138.76657 | 33691 ft | 408 kts | 265° |
| 2026-04-16 13:58 | 35.12585 | 138.73308 | 34145 ft | 405 kts | 265° |
| 2026-04-16 13:58 | 35.11929 | 138.69957 | 34584 ft | 402 kts | 265° |
| 2026-04-16 13:58 | 35.11277 | 138.66635 | 34983 ft | 401 kts | 264° |
| 2026-04-16 13:59 | 35.10640 | 138.63396 | 35417 ft | 397 kts | 264° |
| 2026-04-16 13:59 | 35.09996 | 138.60118 | 35695 ft | 398 kts | 264° |
| 2026-04-16 13:59 | 35.09353 | 138.56862 | 36068 ft | 397 kts | 264° |
| 2026-04-16 13:59 | 35.08710 | 138.53606 | 36127 ft | 393 kts | 264° |
| 2026-04-16 14:00 | 35.07435 | 138.47162 | 36141 ft | 391 kts | 264° |
| 2026-04-16 14:00 | 35.06157 | 138.40732 | 36130 ft | 390 kts | 264° |
| 2026-04-16 14:01 | 35.04881 | 138.34319 | 36123 ft | 391 kts | 264° |
| 2026-04-16 14:01 | 35.03598 | 138.27901 | 36099 ft | 391 kts | 264° |
| 2026-04-16 14:02 | 35.02307 | 138.21449 | 36127 ft | 393 kts | 263° |
| 2026-04-16 14:02 | 35.01004 | 138.14972 | 36108 ft | 391 kts | 264° |
| 2026-04-16 14:03 | 34.99715 | 138.08572 | 36143 ft | 391 kts | 264° |
| 2026-04-16 14:03 | 34.98410 | 138.02112 | 36106 ft | 393 kts | 264° |
| 2026-04-16 14:04 | 34.97109 | 137.95700 | 36101 ft | 389 kts | 264° |
| 2026-04-16 14:04 | 34.95813 | 137.89325 | 36107 ft | 390 kts | 264° |
| 2026-04-16 14:05 | 34.94498 | 137.82873 | 36089 ft | 390 kts | 264° |
| 2026-04-16 14:05 | 34.93195 | 137.76500 | 36115 ft | 389 kts | 264° |
| 2026-04-16 14:06 | 34.91885 | 137.70117 | 36132 ft | 390 kts | 264° |
| 2026-04-16 14:06 | 34.90195 | 137.63782 | 36129 ft | 395 kts | 259° |
| 2026-04-16 14:07 | 34.88347 | 137.57541 | 36093 ft | 393 kts | 259° |
| 2026-04-16 14:07 | 34.86485 | 137.51314 | 36111 ft | 393 kts | 259° |
| 2026-04-16 14:08 | 34.84631 | 137.45032 | 36110 ft | 394 kts | 260° |
| 2026-04-16 14:08 | 34.82856 | 137.38817 | 36035 ft | 382 kts | 260° |
| 2026-04-16 14:09 | 34.81987 | 137.35791 | 35768 ft | 376 kts | 260° |
| 2026-04-16 14:09 | 34.81128 | 137.32783 | 35265 ft | 375 kts | 259° |
| 2026-04-16 14:09 | 34.80270 | 137.29793 | 34846 ft | 373 kts | 260° |
| 2026-04-16 14:09 | 34.79425 | 137.26846 | 34426 ft | 371 kts | 260° |
| 2026-04-16 14:10 | 34.78569 | 137.23875 | 34005 ft | 366 kts | 260° |
| 2026-04-16 14:10 | 34.77746 | 137.21019 | 33584 ft | 360 kts | 261° |
| 2026-04-16 14:10 | 34.76902 | 137.18146 | 33139 ft | 367 kts | 257° |
| 2026-04-16 14:10 | 34.75767 | 137.15286 | 32756 ft | 382 kts | 253° |
| 2026-04-16 14:11 | 34.74579 | 137.12390 | 32357 ft | 390 kts | 253° |
| 2026-04-16 14:11 | 34.73376 | 137.09395 | 31917 ft | 392 kts | 253° |
| 2026-04-16 14:11 | 34.72203 | 137.06444 | 31494 ft | 393 kts | 253° |
| 2026-04-16 14:11 | 34.71009 | 137.03430 | 31055 ft | 392 kts | 252° |
| 2026-04-16 14:12 | 34.69843 | 137.00475 | 30630 ft | 392 kts | 252° |
| 2026-04-16 14:12 | 34.68658 | 136.97464 | 30198 ft | 396 kts | 252° |
| 2026-04-16 14:12 | 34.67474 | 136.94457 | 29760 ft | 401 kts | 251° |
| 2026-04-16 14:12 | 34.66270 | 136.91402 | 29304 ft | 400 kts | 251° |
| 2026-04-16 14:13 | 34.65084 | 136.88400 | 28851 ft | 397 kts | 251° |
| 2026-04-16 14:13 | 34.63891 | 136.85379 | 28402 ft | 393 kts | 251° |
| 2026-04-16 14:13 | 34.62715 | 136.82402 | 27949 ft | 390 kts | 251° |
| 2026-04-16 14:13 | 34.61548 | 136.79445 | 27516 ft | 389 kts | 251° |
| 2026-04-16 14:14 | 34.60392 | 136.76520 | 27089 ft | 388 kts | 251° |
| 2026-04-16 14:14 | 34.59221 | 136.73563 | 26665 ft | 386 kts | 251° |
| 2026-04-16 14:14 | 34.58070 | 136.70659 | 26235 ft | 384 kts | 251° |
| 2026-04-16 14:14 | 34.56911 | 136.67734 | 25803 ft | 381 kts | 250° |
| 2026-04-16 14:15 | 34.55780 | 136.64883 | 25397 ft | 380 kts | 251° |
| 2026-04-16 14:15 | 34.54633 | 136.61993 | 24985 ft | 378 kts | 250° |
| 2026-04-16 14:15 | 34.53490 | 136.59120 | 24573 ft | 376 kts | 250° |
| 2026-04-16 14:15 | 34.52372 | 136.56308 | 24174 ft | 375 kts | 250° |
| 2026-04-16 14:16 | 34.51237 | 136.53458 | 23777 ft | 374 kts | 250° |
| 2026-04-16 14:16 | 34.50119 | 136.50652 | 23385 ft | 372 kts | 250° |
| 2026-04-16 14:16 | 34.49000 | 136.47845 | 22996 ft | 371 kts | 250° |
| 2026-04-16 14:16 | 34.47886 | 136.45055 | 22598 ft | 368 kts | 249° |
| 2026-04-16 14:17 | 34.46773 | 136.42270 | 22197 ft | 367 kts | 249° |
| 2026-04-16 14:17 | 34.45659 | 136.39482 | 21821 ft | 367 kts | 249° |
| 2026-04-16 14:17 | 34.44541 | 136.36690 | 21426 ft | 367 kts | 249° |
| 2026-04-16 14:17 | 34.43432 | 136.33919 | 21039 ft | 368 kts | 248° |
| 2026-04-16 14:18 | 34.42326 | 136.31155 | 20669 ft | 368 kts | 249° |
| 2026-04-16 14:18 | 34.41215 | 136.28389 | 20280 ft | 366 kts | 249° |
| 2026-04-16 14:18 | 34.40106 | 136.25627 | 19890 ft | 366 kts | 248° |
| 2026-04-16 14:18 | 34.38993 | 136.22858 | 19500 ft | 365 kts | 248° |
| 2026-04-16 14:19 | 34.37883 | 136.20094 | 19108 ft | 364 kts | 248° |
| 2026-04-16 14:19 | 34.36782 | 136.17363 | 18711 ft | 364 kts | 248° |
| 2026-04-16 14:19 | 34.35670 | 136.14598 | 18321 ft | 363 kts | 248° |
| 2026-04-16 14:19 | 34.34552 | 136.11890 | 17948 ft | 363 kts | 246° |
| 2026-04-16 14:20 | 34.33393 | 136.09199 | 17718 ft | 360 kts | 247° |
| 2026-04-16 14:20 | 34.32247 | 136.06519 | 17468 ft | 363 kts | 246° |
| 2026-04-16 14:20 | 34.31076 | 136.03787 | 17197 ft | 364 kts | 246° |
| 2026-04-16 14:20 | 34.29924 | 136.01102 | 16931 ft | 363 kts | 246° |
| 2026-04-16 14:21 | 34.28752 | 135.98373 | 16664 ft | 362 kts | 246° |
| 2026-04-16 14:21 | 34.27600 | 135.95694 | 16386 ft | 361 kts | 245° |
| 2026-04-16 14:21 | 34.26438 | 135.92992 | 16126 ft | 360 kts | 245° |
| 2026-04-16 14:21 | 34.25298 | 135.90323 | 15807 ft | 363 kts | 245° |
| 2026-04-16 14:22 | 34.24136 | 135.87602 | 15435 ft | 365 kts | 245° |
| 2026-04-16 14:22 | 34.22975 | 135.84891 | 15043 ft | 364 kts | 245° |
| 2026-04-16 14:22 | 34.21817 | 135.82184 | 14665 ft | 362 kts | 245° |
| 2026-04-16 14:22 | 34.20668 | 135.79503 | 14257 ft | 362 kts | 245° |
| 2026-04-16 14:23 | 34.19503 | 135.76787 | 13844 ft | 362 kts | 244° |
| 2026-04-16 14:23 | 34.18348 | 135.74094 | 13451 ft | 362 kts | 244° |
| 2026-04-16 14:23 | 34.17193 | 135.71400 | 13044 ft | 362 kts | 244° |
| 2026-04-16 14:23 | 34.16053 | 135.68751 | 12633 ft | 358 kts | 243° |
| 2026-04-16 14:24 | 34.14912 | 135.66098 | 12262 ft | 357 kts | 243° |
| 2026-04-16 14:24 | 34.13755 | 135.63411 | 11893 ft | 359 kts | 243° |
| 2026-04-16 14:24 | 34.12617 | 135.60768 | 11506 ft | 359 kts | 243° |
| 2026-04-16 14:24 | 34.11459 | 135.58083 | 11086 ft | 357 kts | 242° |
| 2026-04-16 14:25 | 34.10329 | 135.55464 | 10735 ft | 354 kts | 242° |
| 2026-04-16 14:25 | 34.09191 | 135.52830 | 10388 ft | 352 kts | 242° |
| 2026-04-16 14:25 | 34.08077 | 135.50250 | 10288 ft | 341 kts | 242° |
| 2026-04-16 14:25 | 34.07008 | 135.47777 | 10280 ft | 326 kts | 242° |
| 2026-04-16 14:26 | 34.05973 | 135.45384 | 10256 ft | 312 kts | 242° |
| 2026-04-16 14:26 | 34.04987 | 135.43109 | 10219 ft | 305 kts | 242° |
| 2026-04-16 14:26 | 34.03992 | 135.40811 | 9921 ft | 310 kts | 242° |
| 2026-04-16 14:26 | 34.03005 | 135.38507 | 9612 ft | 309 kts | 242° |
| 2026-04-16 14:27 | 34.02032 | 135.36240 | 9333 ft | 306 kts | 242° |
| 2026-04-16 14:27 | 34.01056 | 135.33964 | 9052 ft | 304 kts | 241° |
| 2026-04-16 14:27 | 34.00093 | 135.31722 | 8759 ft | 302 kts | 241° |
| 2026-04-16 14:27 | 33.99123 | 135.29463 | 8479 ft | 299 kts | 241° |
| 2026-04-16 14:28 | 33.98168 | 135.27239 | 8184 ft | 297 kts | 240° |
| 2026-04-16 14:28 | 33.97219 | 135.25037 | 7893 ft | 295 kts | 241° |
| 2026-04-16 14:28 | 33.96283 | 135.22859 | 7629 ft | 293 kts | 240° |
| 2026-04-16 14:28 | 33.95348 | 135.20689 | 7341 ft | 291 kts | 240° |
| 2026-04-16 14:29 | 33.94422 | 135.18539 | 7069 ft | 288 kts | 240° |
| 2026-04-16 14:29 | 33.93508 | 135.16420 | 6772 ft | 288 kts | 240° |
| 2026-04-16 14:29 | 33.92584 | 135.14279 | 6511 ft | 284 kts | 240° |
| 2026-04-16 14:29 | 33.91778 | 135.12114 | 6264 ft | 282 kts | 255° |
| 2026-04-16 14:30 | 33.91726 | 135.09795 | 6023 ft | 284 kts | 283° |
| 2026-04-16 14:30 | 33.92430 | 135.07562 | 5566 ft | 289 kts | 296° |
| 2026-04-16 14:30 | 33.93297 | 135.05373 | 5102 ft | 294 kts | 296° |
| 2026-04-16 14:30 | 33.94181 | 135.03181 | 5025 ft | 283 kts | 296° |
| 2026-04-16 14:31 | 33.95056 | 135.01051 | 4577 ft | 288 kts | 296° |
| 2026-04-16 14:31 | 33.95943 | 134.98915 | 4371 ft | 282 kts | 295° |
| 2026-04-16 14:31 | 33.96813 | 134.96826 | 4208 ft | 272 kts | 295° |
| 2026-04-16 14:31 | 33.97665 | 134.94809 | 3722 ft | 269 kts | 299° |
| 2026-04-16 14:32 | 33.98850 | 134.93198 | 3706 ft | 249 kts | 321° |
| 2026-04-16 14:32 | 34.00156 | 134.91933 | 3667 ft | 232 kts | 320° |
| 2026-04-16 14:32 | 34.01375 | 134.90752 | 3622 ft | 217 kts | 321° |
| 2026-04-16 14:32 | 34.02523 | 134.89662 | 3600 ft | 202 kts | 322° |
| 2026-04-16 14:33 | 34.03596 | 134.88654 | 3474 ft | 194 kts | 322° |
| 2026-04-16 14:33 | 34.04692 | 134.87630 | 3091 ft | 200 kts | 322° |
| 2026-04-16 14:33 | 34.05767 | 134.86629 | 2948 ft | 189 kts | 322° |
| 2026-04-16 14:33 | 34.06796 | 134.85672 | 2675 ft | 187 kts | 322° |
| 2026-04-16 14:34 | 34.07812 | 134.84727 | 2458 ft | 179 kts | 322° |
| 2026-04-16 14:34 | 34.08707 | 134.83817 | 2375 ft | 162 kts | 306° |
| 2026-04-16 14:34 | 34.09113 | 134.82582 | 2348 ft | 156 kts | 279° |
| 2026-04-16 14:34 | 34.09367 | 134.81271 | 2337 ft | 164 kts | 281° |
| 2026-04-16 14:35 | 34.09550 | 134.80377 | 2305 ft | 163 kts | 281° |
| 2026-04-16 14:35 | 34.09899 | 134.78626 | 2205 ft | 160 kts | 282° |
| 2026-04-16 14:35 | 34.10158 | 134.77304 | 2135 ft | 161 kts | 282° |
| 2026-04-16 14:35 | 34.10414 | 134.75990 | 2068 ft | 161 kts | 281° |
| 2026-04-16 14:36 | 34.10582 | 134.75124 | 2034 ft | 160 kts | 281° |
| 2026-04-16 14:36 | 34.10915 | 134.73389 | 1937 ft | 159 kts | 281° |
| 2026-04-16 14:36 | 34.11160 | 134.72066 | 1732 ft | 162 kts | 282° |
| 2026-04-16 14:36 | 34.11321 | 134.71205 | 1565 ft | 159 kts | 282° |
| 2026-04-16 14:37 | 34.11636 | 134.69505 | 1240 ft | 152 kts | 283° |
| 2026-04-16 14:37 | 34.11866 | 134.68271 | 1030 ft | 150 kts | 284° |
| 2026-04-16 14:37 | 34.12094 | 134.67040 | 839 ft | 150 kts | 285° |
| 2026-04-16 14:37 | 34.12319 | 134.65828 | 629 ft | 146 kts | 285° |
| 2026-04-16 14:38 | 34.12534 | 134.64648 | 442 ft | 144 kts | 285° |
| 2026-04-16 14:38 | 34.12738 | 134.63474 | 269 ft | 144 kts | 288° |
| 2026-04-16 14:38 | 34.12970 | 134.62289 | 95 ft | 145 kts | 287° |
| 2026-04-16 14:38 | 34.13116 | 134.61505 | 30 ft | 141 kts | 288° |
| 2026-04-16 14:39 | 34.13324 | 134.60381 | 9 ft | 24 kts | 283° |
| 2026-04-16 14:39 | 34.13370 | 134.60184 | 10 ft | 15 kts | 304° |
| 2026-04-16 14:39 | 34.13462 | 134.60176 | 11 ft | 14 kts | 12° |
| 2026-04-16 14:39 | 34.13510 | 134.60210 | 11 ft | 11 kts | 57° |
| 2026-04-16 14:40 | 34.13506 | 134.60336 | 10 ft | 14 kts | 102° |
| 2026-04-16 14:40 | 34.13484 | 134.60455 | 9 ft | 27 kts | 102° |
| 2026-04-16 14:40 | 34.13426 | 134.60776 | 9 ft | 30 kts | 103° |
| 2026-04-16 14:40 | 34.13395 | 134.60939 | 14 ft | 29 kts | 103° |
| 2026-04-16 14:41 | 34.13341 | 134.61243 | 26 ft | 26 kts | 101° |
| 2026-04-16 14:41 | 34.13312 | 134.61386 | 26 ft | 27 kts | 105° |
| 2026-04-16 14:41 | 34.13265 | 134.61641 | 22 ft | 22 kts | 102° |
| 2026-04-16 14:41 | 34.13251 | 134.61726 | 22 ft | 9 kts | 78° |
| 2026-04-16 14:42 | 34.13334 | 134.61769 | 19 ft | 10 kts | 13° |
| 2026-04-16 14:42 | 34.13378 | 134.61781 | 16 ft | 0 kts | 11° |